Time;durP1;ratioP1;P1;durP2;ratioP2;P2;SDS_P1;SDS_P2;PMS_P1;PMS_P2;Temp;Humidity;BMP_temperature;BMP_pressure;BME280_temperature;BME280_humidity;BME280_pressure;Samples;Min_cycle;Max_cycle;Signal;HPM_P1;HPM_P2
2022/09/13 00:00:42;;;;;;;7.65;4.70;;;;;;;11.39;62.58;99543.00;5076635;28;20032;-51
2022/09/13 00:03:10;;;;;;;6.80;4.60;;;;;;;11.35;62.95;99538.84;5088685;28;20043;-49
2022/09/13 00:05:37;;;;;;;6.20;4.40;;;;;;;11.31;62.93;99543.31;5088875;28;20051;-53
2022/09/13 00:08:03;;;;;;;7.40;5.15;;;;;;;11.27;62.97;99533.94;5072972;28;20028;-48
2022/09/13 00:10:29;;;;;;;5.65;4.30;;;;;;;11.24;63.22;99530.63;5090855;28;20085;-50
2022/09/13 00:12:55;;;;;;;6.65;4.40;;;;;;;11.07;63.33;99501.78;5092703;28;20135;-53
2022/09/13 00:15:21;;;;;;;7.97;4.40;;;;;;;11.15;63.27;99526.59;5088721;28;20040;-54
2022/09/13 00:17:47;;;;;;;13.98;4.80;;;;;;;11.11;63.23;99532.84;5087118;28;20032;-48
2022/09/13 00:20:13;;;;;;;7.32;4.30;;;;;;;11.07;63.41;99528.66;5093550;28;20126;-49
2022/09/13 00:22:39;;;;;;;10.13;4.90;;;;;;;10.78;63.17;99482.94;5104117;28;20057;-49
2022/09/13 00:25:06;;;;;;;10.63;4.93;;;;;;;11.01;63.96;99526.28;5108059;28;20036;-52
2022/09/13 00:27:33;;;;;;;7.40;4.35;;;;;;;11.00;63.54;99517.63;5108020;28;20043;-52
2022/09/13 00:29:58;;;;;;;8.35;4.20;;;;;;;10.98;63.88;99516.88;5100405;28;20039;-52
2022/09/13 00:32:24;;;;;;;6.28;4.15;;;;;;;10.98;63.72;99522.06;5097867;28;20118;-55
2022/09/13 00:34:50;;;;;;;7.07;4.22;;;;;;;11.00;63.98;99514.19;5087948;28;20032;-49
2022/09/13 00:37:16;;;;;;;7.93;4.40;;;;;;;10.82;63.97;99489.75;5088979;28;20071;-48
2022/09/13 00:39:41;;;;;;;6.55;4.40;;;;;;;10.97;63.76;99517.78;5087381;28;20039;-47
2022/09/13 00:42:14;;;;;;;7.55;4.70;;;;;;;10.95;63.64;99518.72;5082208;28;20082;-55
2022/09/13 00:44:54;;;;;;;6.82;4.60;;;;;;;10.89;64.06;99513.75;5088391;28;20127;-49
2022/09/13 00:47:33;;;;;;;9.05;4.60;;;;;;;10.88;64.19;99512.94;5095086;28;20051;-51
2022/09/13 00:50:23;;;;;;;5.13;4.30;;;;;;;10.85;64.54;99512.19;5088985;28;20031;-49
2022/09/13 00:52:54;;;;;;;6.45;4.10;;;;;;;10.83;64.32;99517.47;5089702;28;20036;-52
2022/09/13 00:55:30;;;;;;;6.38;4.10;;;;;;;10.81;64.51;99503.66;5090369;28;20038;-50
2022/09/13 00:58:01;;;;;;;6.18;4.25;;;;;;;10.77;64.14;99522.03;5089828;28;20044;-48
2022/09/13 01:00:27;;;;;;;8.48;4.53;;;;;;;10.45;64.52;99466.03;5091091;28;20611;-49
2022/09/13 01:03:06;;;;;;;7.68;4.35;;;;;;;10.70;64.27;99515.38;5069736;28;20041;-48
2022/09/13 01:05:38;;;;;;;6.63;4.30;;;;;;;10.67;64.37;99513.75;5070479;28;20080;-50
2022/09/13 01:08:14;;;;;;;5.88;4.35;;;;;;;10.54;64.66;99504.69;5089921;28;20046;-51
2022/09/13 01:10:41;;;;;;;6.70;4.40;;;;;;;10.53;64.76;99510.78;5092167;28;20052;-50
2022/09/13 01:13:28;;;;;;;5.75;4.38;;;;;;;10.48;64.80;99510.97;5071783;28;20043;-48
2022/09/13 01:15:53;;;;;;;6.53;4.45;;;;;;;10.43;65.21;99504.22;5092706;28;20036;-51
2022/09/13 01:18:19;;;;;;;7.68;4.70;;;;;;;10.40;65.18;99512.16;5089719;28;20074;-49
2022/09/13 01:21:07;;;;;;;6.65;4.45;;;;;;;10.35;65.01;99512.31;5093908;28;20051;-50
2022/09/13 01:24:07;;;;;;;7.63;4.40;;;;;;;10.29;64.96;99511.69;5091072;28;20040;-53
2022/09/13 01:27:02;;;;;;;7.45;4.68;;;;;;;10.26;65.43;99507.44;5088387;28;20048;-49
2022/09/13 01:29:56;;;;;;;7.25;4.63;;;;;;;10.22;65.50;99507.59;5069862;28;20134;-50
2022/09/13 01:32:28;;;;;;;5.38;4.22;;;;;;;10.17;65.67;99507.78;5099912;28;20040;-51
2022/09/13 01:35:12;;;;;;;5.65;4.20;;;;;;;10.14;65.87;99513.06;5087370;28;20135;-51
2022/09/13 01:38:28;;;;;;;5.93;4.35;;;;;;;10.08;65.76;99514.13;5090336;28;20040;-52
2022/09/13 01:41:19;;;;;;;8.57;4.55;;;;;;;10.04;66.04;99509.94;5067482;28;20056;-53
2022/09/13 01:44:14;;;;;;;6.60;4.50;;;;;;;10.02;66.12;99506.53;5078271;28;20040;-52
2022/09/13 01:46:51;;;;;;;8.80;4.20;;;;;;;10.00;66.23;99520.47;5092463;28;20059;-49
2022/09/13 01:49:57;;;;;;;6.68;4.47;;;;;;;9.99;66.58;99523.97;5093188;28;20770;-50
2022/09/13 01:52:30;;;;;;;7.35;4.43;;;;;;;9.96;66.26;99519.72;5095482;28;20039;-51
2022/09/13 01:55:10;;;;;;;5.82;4.60;;;;;;;9.95;66.10;99517.16;5096823;28;20135;-49
2022/09/13 01:57:51;;;;;;;8.10;4.93;;;;;;;9.95;66.21;99518.03;5088785;28;20140;-48
2022/09/13 02:00:18;;;;;;;6.72;4.32;;;;;;;9.95;66.64;99517.16;5095242;28;20523;-53
2022/09/13 02:02:57;;;;;;;7.45;4.35;;;;;;;9.98;66.71;99515.34;5070930;28;20047;-53
2022/09/13 02:05:47;;;;;;;5.93;4.28;;;;;;;10.02;66.14;99509.13;5094182;28;20428;-53
2022/09/13 02:08:14;;;;;;;;;;;;;;;10.03;66.41;99494.41;5072677;28;20071;-51
2022/09/13 02:10:50;;;;;;;6.38;4.10;;;;;;;10.04;66.16;99502.16;5082146;28;19915;-50
2022/09/13 02:13:21;;;;;;;9.32;4.55;;;;;;;10.05;66.12;99506.41;5049178;28;20052;-48
2022/09/13 02:15:52;;;;;;;8.05;4.72;;;;;;;9.90;66.08;99473.19;5091605;28;20044;-50
2022/09/13 02:18:29;;;;;;;5.72;4.18;;;;;;;10.11;65.87;99497.56;5086618;28;20396;-51
2022/09/13 02:21:00;;;;;;;6.43;4.50;;;;;;;10.13;66.26;99511.34;5087628;28;20565;-53
2022/09/13 02:23:33;;;;;;;9.57;4.32;;;;;;;10.15;65.78;99504.38;5071497;28;20545;-53
2022/09/13 02:25:59;;;;;;;6.72;4.50;;;;;;;10.14;65.67;99498.31;5091240;28;20584;-50
2022/09/13 02:28:31;;;;;;;7.93;4.55;;;;;;;10.16;66.06;99500.88;5080716;28;20052;-49
2022/09/13 02:30:58;;;;;;;7.43;4.60;;;;;;;10.14;65.63;99497.47;5078122;28;20778;-51
2022/09/13 02:33:28;;;;;;;11.00;4.70;;;;;;;10.13;65.85;99501.81;5074021;28;20131;-52
2022/09/13 02:36:00;;;;;;;5.90;4.75;;;;;;;10.11;65.75;99485.41;5074484;28;20047;-49
2022/09/13 02:38:30;;;;;;;6.38;4.25;;;;;;;9.93;66.24;99456.66;5089784;28;20368;-50
2022/09/13 02:41:19;;;;;;;7.07;4.70;;;;;;;10.02;65.77;99484.91;5088096;28;20511;-50
2022/09/13 02:44:01;;;;;;;9.95;4.85;;;;;;;9.97;66.22;99492.84;5083150;28;20051;-50
2022/09/13 02:46:51;;;;;;;8.05;4.88;;;;;;;9.91;66.34;99487.88;5108194;27;20054;-50
2022/09/13 02:49:28;;;;;;;7.40;5.03;;;;;;;9.87;66.49;99491.47;5078689;28;20039;-48
2022/09/13 02:52:03;;;;;;;11.73;4.70;;;;;;;9.83;66.70;99486.44;5088253;28;20054;-50
2022/09/13 02:54:38;;;;;;;6.68;4.55;;;;;;;9.78;67.14;99484.88;5089060;28;20044;-53
2022/09/13 02:57:13;;;;;;;7.07;4.75;;;;;;;9.75;66.98;99486.69;5103441;28;20043;-52
2022/09/13 02:59:38;;;;;;;9.45;4.80;;;;;;;9.72;67.07;99492.00;5089329;28;20106;-48
2022/09/13 03:02:16;;;;;;;6.72;4.82;;;;;;;9.71;66.95;99485.97;5095213;28;20035;-49
2022/09/13 03:04:41;;;;;;;7.75;4.70;;;;;;;9.73;66.96;99491.13;5087763;28;20125;-49
2022/09/13 03:07:12;;;;;;;6.95;4.85;;;;;;;9.73;67.17;99488.53;5076744;28;20083;-50
2022/09/13 03:09:45;;;;;;;7.72;4.93;;;;;;;9.72;67.41;99482.47;5088711;28;20043;-51
2022/09/13 03:12:46;;;;;;;8.13;4.40;;;;;;;9.73;67.08;99486.75;5088349;28;20078;-51
2022/09/13 03:15:31;;;;;;;8.85;4.65;;;;;;;9.75;67.04;99481.50;5019996;28;20477;-52
2022/09/13 03:18:24;;;;;;;8.55;4.68;;;;;;;9.78;66.98;99476.22;5074045;28;20051;-51
2022/09/13 03:21:14;;;;;;;9.43;4.75;;;;;;;9.83;67.11;99473.47;5087977;28;20392;-51
2022/09/13 03:24:12;;;;;;;6.57;4.43;;;;;;;9.86;67.10;99469.00;5089041;28;20518;-54
2022/09/13 03:27:20;;;;;;;5.88;4.55;;;;;;;9.90;66.66;99468.00;5020797;28;20060;-53
2022/09/13 03:30:08;;;;;;;10.10;5.32;;;;;;;9.81;66.78;99438.91;5067840;28;20047;-48
2022/09/13 03:32:36;;;;;;;7.25;4.72;;;;;;;10.02;66.48;99458.94;5124468;27;20042;-52
2022/09/13 03:35:21;;;;;;;9.43;4.57;;;;;;;10.07;66.56;99455.28;5108809;28;20031;-48
2022/09/13 03:38:02;;;;;;;8.07;4.75;;;;;;;10.01;65.98;99449.44;5110028;28;20109;-53
2022/09/13 03:40:45;;;;;;;6.00;4.72;;;;;;;10.15;66.24;99457.59;5101233;28;20039;-51
2022/09/13 03:43:13;;;;;;;9.00;4.68;;;;;;;10.24;66.09;99462.50;5089308;28;20047;-47
2022/09/13 03:45:49;;;;;;;6.50;4.93;;;;;;;10.32;65.49;99473.44;5089654;28;20039;-52
2022/09/13 03:48:15;;;;;;;7.00;5.10;;;;;;;10.34;65.33;99474.25;5108081;28;20467;-52
2022/09/13 03:50:42;;;;;;;9.30;5.30;;;;;;;10.34;65.17;99474.25;5108694;28;20066;-52
2022/09/13 03:53:10;;;;;;;11.63;4.43;;;;;;;10.38;65.43;99473.22;5108685;28;20042;-48
2022/09/13 03:55:42;;;;;;;7.00;4.53;;;;;;;10.40;65.09;99465.38;5108394;28;20058;-49
2022/09/13 03:58:16;;;;;;;8.68;4.90;;;;;;;10.42;65.35;99466.16;5068432;28;20051;-52
2022/09/13 04:00:43;;;;;;;13.02;5.32;;;;;;;10.40;65.14;99463.63;5101478;28;20051;-53
2022/09/13 04:03:09;;;;;;;7.50;4.38;;;;;;;10.43;64.99;99462.66;5089050;28;20081;-54
2022/09/13 04:05:35;;;;;;;8.85;5.45;;;;;;;10.51;64.88;99464.06;5088234;28;20052;-54
2022/09/13 04:08:04;;;;;;;7.30;5.07;;;;;;;10.59;64.78;99463.78;5087704;28;20096;-50
2022/09/13 04:10:31;;;;;;;8.35;5.20;;;;;;;10.66;64.47;99449.66;5088225;28;20036;-53
2022/09/13 04:12:59;;;;;;;9.00;4.90;;;;;;;10.67;64.87;99458.28;5081339;28;20044;-51
2022/09/13 04:15:25;;;;;;;9.52;4.97;;;;;;;10.70;64.63;99456.41;5088594;28;20036;-50
2022/09/13 04:17:51;;;;;;;10.23;5.05;;;;;;;10.70;64.17;99464.22;5091454;28;20418;-50
2022/09/13 04:20:18;;;;;;;9.45;5.47;;;;;;;10.76;63.84;99466.59;5087544;28;20054;-52
2022/09/13 04:22:50;;;;;;;9.48;4.75;;;;;;;10.85;64.47;99460.16;5088126;28;20869;-51
2022/09/13 04:25:16;;;;;;;10.60;5.40;;;;;;;10.91;63.78;99450.38;5087321;28;20043;-50
2022/09/13 04:27:42;;;;;;;7.10;5.32;;;;;;;11.08;63.43;99454.06;5091824;28;20044;-49
2022/09/13 04:30:08;;;;;;;10.00;5.57;;;;;;;10.90;63.24;99406.22;5082811;28;20154;-49
2022/09/13 04:32:34;;;;;;;10.93;5.55;;;;;;;11.22;63.17;99455.19;5080851;28;20047;-54
2022/09/13 04:35:00;;;;;;;13.80;5.43;;;;;;;11.26;62.63;99455.91;5090836;28;20515;-52
2022/09/13 04:37:26;;;;;;;9.38;5.63;;;;;;;11.36;62.26;99473.69;5102738;28;20048;-48
2022/09/13 04:39:52;;;;;;;9.90;5.43;;;;;;;11.41;62.30;99476.09;5092880;28;20583;-53
2022/09/13 04:42:18;;;;;;;12.15;5.90;;;;;;;11.40;62.15;99449.25;5090115;28;20047;-52
2022/09/13 04:44:44;;;;;;;11.07;5.88;;;;;;;11.67;61.95;99475.88;5089453;28;20063;-52
2022/09/13 04:47:10;;;;;;;9.70;5.50;;;;;;;11.81;61.63;99470.97;5093628;28;20078;-48
2022/09/13 04:49:36;;;;;;;63.65;7.85;;;;;;;11.76;61.63;99443.44;5091960;28;20047;-48
2022/09/13 04:52:02;;;;;;;10.25;5.30;;;;;;;11.98;61.37;99470.25;5091692;28;20048;-51
2022/09/13 04:54:28;;;;;;;8.93;5.55;;;;;;;11.95;60.74;99446.06;5090884;28;20032;-49
2022/09/13 04:56:54;;;;;;;8.77;5.40;;;;;;;12.28;60.19;99476.72;5089882;28;20056;-52
2022/09/13 04:59:20;;;;;;;8.63;6.15;;;;;;;12.41;59.86;99471.78;5091723;28;20400;-50
2022/09/13 05:01:46;;;;;;;8.45;5.32;;;;;;;12.54;59.61;99469.47;5097857;28;20040;-51
2022/09/13 05:04:12;;;;;;;9.13;5.35;;;;;;;12.58;59.22;99479.69;5091572;28;20051;-51
2022/09/13 05:06:38;;;;;;;7.75;5.43;;;;;;;12.48;59.37;99452.34;5094964;28;20043;-53
2022/09/13 05:09:04;;;;;;;9.13;5.35;;;;;;;12.61;59.27;99479.53;5094734;28;20108;-52
2022/09/13 05:11:30;;;;;;;8.88;5.90;;;;;;;12.57;58.87;99479.75;5071923;28;20040;-52
2022/09/13 05:13:58;;;;;;;9.45;5.88;;;;;;;12.57;59.14;99474.53;5083968;28;20044;-50
2022/09/13 05:16:26;;;;;;;16.55;6.30;;;;;;;12.30;59.13;99438.38;5092092;28;20094;-51
2022/09/13 05:18:52;;;;;;;11.02;5.72;;;;;;;12.52;59.38;99477.38;5089763;28;20047;-52
2022/09/13 05:21:19;;;;;;;9.98;6.07;;;;;;;12.55;59.17;99476.41;5090425;28;20044;-48
2022/09/13 05:23:47;;;;;;;12.55;6.95;;;;;;;12.62;58.92;99486.47;5091413;28;20047;-50
2022/09/13 05:26:13;;;;;;;11.23;5.78;;;;;;;12.73;59.02;99479.00;5096034;28;20090;-54
2022/09/13 05:28:39;;;;;;;10.88;6.28;;;;;;;12.54;58.56;99433.81;5090865;28;20550;-53
2022/09/13 05:31:12;;;;;;;13.15;6.43;;;;;;;12.76;58.33;99456.28;5090260;28;20043;-53
2022/09/13 05:33:38;;;;;;;10.15;6.20;;;;;;;12.94;57.93;99479.75;5085333;28;20142;-54
2022/09/13 05:36:05;;;;;;;18.17;9.65;;;;;;;12.99;58.09;99482.13;5087015;28;20120;-55
2022/09/13 05:38:31;;;;;;;12.77;7.28;;;;;;;12.99;58.27;99476.91;5081962;28;20130;-53
2022/09/13 05:40:59;;;;;;;10.00;6.40;;;;;;;12.98;57.88;99478.69;5087286;28;20043;-51
2022/09/13 05:43:27;;;;;;;10.10;6.55;;;;;;;12.96;57.91;99482.28;5096909;28;20044;-52
2022/09/13 05:46:05;;;;;;;11.57;6.15;;;;;;;12.94;57.82;99476.28;5099409;28;20039;-48
2022/09/13 05:48:33;;;;;;;8.38;5.72;;;;;;;12.93;58.02;99482.41;5103087;28;20043;-48
2022/09/13 05:51:19;;;;;;;10.20;6.00;;;;;;;12.83;57.92;99460.28;5089710;28;20054;-51
2022/09/13 05:53:47;;;;;;;9.40;5.90;;;;;;;12.94;57.96;99468.47;5109770;28;20070;-52
2022/09/13 05:56:15;;;;;;;13.57;6.00;;;;;;;12.94;58.09;99478.91;5095585;28;20047;-53
2022/09/13 05:58:43;;;;;;;10.18;6.40;;;;;;;12.96;57.93;99474.47;5090861;28;20068;-52
2022/09/13 06:01:10;;;;;;;18.80;6.90;;;;;;;12.84;58.13;99438.50;5088024;28;20065;-51
2022/09/13 06:03:36;;;;;;;12.48;6.85;;;;;;;13.09;57.71;99468.56;5084128;28;20047;-53
2022/09/13 06:06:02;;;;;;;13.98;7.70;;;;;;;13.17;57.81;99470.88;5082329;28;20044;-52
2022/09/13 06:08:30;;;;;;;21.70;11.00;;;;;;;13.25;57.73;99467.88;5096072;28;20499;-54
2022/09/13 06:11:04;;;;;;;8.82;5.60;;;;;;;13.25;57.17;99468.72;5092097;28;20473;-54
2022/09/13 06:13:31;;;;;;;10.23;6.20;;;;;;;13.28;57.09;99471.19;5089187;28;20058;-51
2022/09/13 06:15:58;;;;;;;14.95;6.88;;;;;;;13.26;56.92;99467.81;5088559;28;20032;-54
2022/09/13 06:18:25;;;;;;;14.85;6.28;;;;;;;13.31;57.02;99471.03;5098467;28;20076;-53
2022/09/13 06:20:58;;;;;;;10.38;6.20;;;;;;;13.34;56.85;99468.28;5086752;28;20031;-54
2022/09/13 06:23:23;;;;;;;12.93;6.70;;;;;;;13.35;56.65;99476.94;5090297;28;20040;-53
2022/09/13 06:25:49;;;;;;;12.32;6.85;;;;;;;13.38;56.94;99474.19;5088543;28;20043;-55
2022/09/13 06:28:15;;;;;;;11.55;6.30;;;;;;;13.46;56.92;99470.28;5085333;28;20035;-61
2022/09/13 06:30:41;;;;;;;9.90;5.88;;;;;;;13.49;56.62;99472.75;5089685;28;20473;-57
2022/09/13 06:33:07;;;;;;;10.60;5.93;;;;;;;13.59;56.29;99486.19;5085891;28;20072;-54
2022/09/13 06:35:33;;;;;;;11.15;6.22;;;;;;;13.67;55.91;99488.41;5094640;28;20070;-58
2022/09/13 06:37:59;;;;;;;12.85;6.05;;;;;;;13.78;55.93;99488.72;5088796;28;20032;-54
2022/09/13 06:40:25;;;;;;;12.63;6.70;;;;;;;13.91;55.44;99476.75;5086298;28;20070;-56
2022/09/13 06:42:50;;;;;;;14.05;6.82;;;;;;;13.88;54.96;99446.38;5086942;28;20036;-53
2022/09/13 06:45:17;;;;;;;10.63;6.32;;;;;;;14.24;54.77;99474.97;5092960;28;20043;-51
2022/09/13 06:47:43;;;;;;;21.52;11.68;;;;;;;14.59;54.23;99473.16;5093543;28;20043;-54
2022/09/13 06:50:09;;;;;;;12.07;6.57;;;;;;;14.90;53.52;99471.47;5084020;28;20040;-54
2022/09/13 06:52:36;;;;;;;12.38;5.88;;;;;;;15.07;52.98;99474.00;5081013;28;20123;-52
2022/09/13 06:55:02;;;;;;;12.55;5.95;;;;;;;15.12;52.53;99469.34;5082408;28;20040;-57
2022/09/13 06:57:30;;;;;;;12.13;5.20;;;;;;;15.16;52.27;99468.22;5083076;28;20035;-49
2022/09/13 06:59:55;;;;;;;7.72;5.35;;;;;;;15.20;52.28;99469.75;5080851;28;20039;-49
2022/09/13 07:02:23;;;;;;;10.13;5.40;;;;;;;15.20;52.36;99474.97;5088744;28;20063;-46
2022/09/13 07:04:49;;;;;;;11.48;5.63;;;;;;;15.21;52.13;99460.97;5088028;28;20632;-51
2022/09/13 07:07:14;;;;;;;12.07;5.63;;;;;;;15.29;51.94;99458.72;5089233;28;20036;-51
2022/09/13 07:09:42;;;;;;;12.30;6.55;;;;;;;15.27;51.88;99451.00;5104766;28;20069;-49
2022/09/13 07:12:08;;;;;;;15.75;6.20;;;;;;;15.21;52.02;99450.47;5088094;28;20044;-54
2022/09/13 07:14:34;;;;;;;8.90;5.38;;;;;;;15.34;51.85;99461.94;5085648;28;20613;-55
2022/09/13 07:16:59;;;;;;;16.23;5.63;;;;;;;15.41;51.52;99434.47;5073182;28;20130;-51
2022/09/13 07:19:26;;;;;;;18.75;5.55;;;;;;;15.68;50.89;99451.22;5070107;28;20036;-56
2022/09/13 07:21:54;;;;;;;12.40;5.20;;;;;;;15.82;50.96;99444.31;5079895;28;20104;-53
2022/09/13 07:24:21;;;;;;;11.93;5.97;;;;;;;15.91;50.91;99444.59;5101833;28;20037;-57
2022/09/13 07:26:47;;;;;;;14.55;6.47;;;;;;;16.00;50.24;99446.69;5069558;28;20044;-59
2022/09/13 07:29:17;;;;;;;9.00;5.57;;;;;;;16.01;50.40;99440.53;5069227;28;20047;-59
2022/09/13 07:31:46;;;;;;;11.13;6.45;;;;;;;16.04;50.06;99442.09;5069250;28;20044;-50
2022/09/13 07:34:13;;;;;;;15.05;8.30;;;;;;;16.14;49.54;99439.75;5034729;28;20032;-61
2022/09/13 07:36:39;;;;;;;12.20;5.15;;;;;;;16.35;49.51;99441.06;5084978;28;20427;-64
2022/09/13 07:39:05;;;;;;;12.43;6.25;;;;;;;16.70;48.55;99438.88;5087568;28;20040;-50
2022/09/13 07:41:32;;;;;;;9.75;5.25;;;;;;;17.10;47.94;99437.19;5088405;28;20050;-59
2022/09/13 07:44:00;;;;;;;12.77;6.53;;;;;;;17.48;46.92;99432.88;5087360;28;20047;-58
2022/09/13 07:46:35;;;;;;;10.02;5.30;;;;;;;18.03;45.99;99426.56;5088886;28;20048;-56
2022/09/13 07:49:01;;;;;;;12.07;6.32;;;;;;;18.59;45.16;99428.72;5087541;28;20043;-58
2022/09/13 07:51:29;;;;;;;9.77;5.53;;;;;;;19.14;44.29;99429.16;5088568;28;20048;-57
2022/09/13 07:53:56;;;;;;;7.70;4.80;;;;;;;19.53;43.06;99426.22;5087749;28;20044;-55
2022/09/13 07:56:27;;;;;;;6.82;4.63;;;;;;;20.26;42.03;99423.19;5085141;28;20040;-52
2022/09/13 07:58:56;;;;;;;11.23;5.38;;;;;;;21.46;39.87;99416.97;5089426;28;20151;-51
2022/09/13 08:01:24;;;;;;;6.68;4.32;;;;;;;23.17;36.91;99418.84;5124934;27;20139;-47
2022/09/13 08:03:53;;;;;;;8.23;3.90;;;;;;;24.30;34.34;99402.06;5070783;28;20071;-52
2022/09/13 08:06:19;;;;;;;6.45;4.13;;;;;;;25.17;33.37;99406.91;5086977;28;20418;-51
2022/09/13 08:08:45;;;;;;;11.15;4.15;;;;;;;25.80;32.68;99412.09;5087286;28;20044;-50
2022/09/13 08:11:21;;;;;;;6.00;4.25;;;;;;;25.48;32.11;99407.31;5089222;28;20418;-54
2022/09/13 08:13:48;;;;;;;8.80;4.00;;;;;;;24.89;32.23;99388.31;5089063;28;20109;-50
2022/09/13 08:16:15;;;;;;;12.82;5.00;;;;;;;24.52;32.52;99402.66;5087658;28;20797;-50
2022/09/13 08:18:45;;;;;;;7.03;4.00;;;;;;;24.68;32.32;99403.69;5087780;28;20063;-51
2022/09/13 08:21:12;;;;;;;8.38;3.67;;;;;;;24.84;32.10;99405.69;5087524;28;20108;-47
2022/09/13 08:23:38;;;;;;;8.73;4.78;;;;;;;25.08;31.58;99400.63;5088624;28;20043;-48
2022/09/13 08:26:06;;;;;;;7.63;4.88;;;;;;;25.18;30.93;99384.59;5070311;28;20142;-55
2022/09/13 08:28:36;;;;;;;7.95;5.50;;;;;;;25.36;30.56;99400.56;5086426;28;20039;-54
2022/09/13 08:31:04;;;;;;;4.45;2.95;;;;;;;25.21;30.03;99390.47;5086059;28;20036;-58
2022/09/13 08:33:31;;;;;;;6.18;3.40;;;;;;;25.29;30.33;99393.19;5087570;28;20439;-57
2022/09/13 08:35:57;;;;;;;8.73;3.13;;;;;;;25.31;30.20;99393.88;5087974;28;20044;-51
2022/09/13 08:38:23;;;;;;;5.47;2.85;;;;;;;26.74;28.54;99386.25;5088874;28;20119;-50
2022/09/13 08:40:54;;;;;;;4.93;3.08;;;;;;;27.64;27.39;99342.63;5088795;28;20151;-53
2022/09/13 08:43:58;;;;;;;8.43;2.90;;;;;;;28.81;25.64;99382.84;5088523;28;20575;-51
2022/09/13 08:46:45;;;;;;;4.82;2.38;;;;;;;28.67;25.38;99373.72;5087250;28;20118;-52
2022/09/13 08:49:28;;;;;;;3.85;2.78;;;;;;;27.00;26.71;99354.16;5087415;28;20110;-54
2022/09/13 08:51:55;;;;;;;10.07;2.70;;;;;;;26.44;27.07;99364.47;5088709;28;20052;-54
2022/09/13 08:54:21;;;;;;;7.65;3.08;;;;;;;26.21;27.23;99355.38;5087407;28;20074;-53
2022/09/13 08:56:58;;;;;;;11.10;2.63;;;;;;;26.23;27.29;99357.91;5087171;28;20067;-54
2022/09/13 08:59:45;;;;;;;7.78;4.20;;;;;;;26.74;26.59;99346.25;5088453;28;20126;-51
2022/09/13 09:02:35;;;;;;;8.02;2.60;;;;;;;27.21;26.02;99360.69;5086503;28;20040;-56
2022/09/13 09:05:30;;;;;;;4.22;2.22;;;;;;;27.67;25.58;99340.47;5087114;28;20101;-53
2022/09/13 09:08:03;;;;;;;4.97;2.60;;;;;;;28.32;25.06;99337.59;5085079;28;20401;-57
2022/09/13 09:10:30;;;;;;;11.82;2.67;;;;;;;28.16;25.01;99329.63;5085693;28;20040;-62
2022/09/13 09:13:13;;;;;;;5.25;3.13;;;;;;;27.32;25.75;99330.16;5089162;28;20713;-58
2022/09/13 09:15:45;;;;;;;12.65;5.53;;;;;;;26.52;26.42;99319.19;5090916;28;20032;-60
2022/09/13 09:18:16;;;;;;;7.53;2.65;;;;;;;26.45;26.61;99320.84;5090951;28;20052;-61
2022/09/13 09:20:45;;;;;;;8.93;3.92;;;;;;;27.49;25.67;99310.41;5091938;28;20051;-52
2022/09/13 09:23:21;;;;;;;8.73;4.00;;;;;;;28.18;24.99;99292.88;5090445;28;20044;-47
2022/09/13 09:25:49;;;;;;;6.45;2.50;;;;;;;28.67;24.36;99316.69;5090195;28;20119;-56
2022/09/13 09:28:20;;;;;;;7.57;2.22;;;;;;;28.15;24.21;99303.94;5091163;28;20054;-50
2022/09/13 09:31:03;;;;;;;3.63;2.40;;;;;;;27.81;24.20;99317.56;5088980;28;20204;-52
2022/09/13 09:33:38;;;;;;;9.43;2.17;;;;;;;26.88;24.16;99308.28;5073750;28;20195;-47
2022/09/13 09:36:13;;;;;;;6.28;1.77;;;;;;;26.06;24.59;99250.41;5089077;28;20032;-55
2022/09/13 09:38:41;;;;;;;6.72;2.47;;;;;;;26.05;25.08;99305.50;5086282;28;20357;-60
2022/09/13 09:41:21;;;;;;;6.25;1.90;;;;;;;26.91;24.51;99297.25;5090413;28;20036;-60
2022/09/13 09:44:05;;;;;;;8.30;2.00;;;;;;;27.07;24.36;99291.09;5091408;28;20036;-60
2022/09/13 09:46:34;;;;;;;7.65;2.53;;;;;;;25.93;25.59;99290.78;5090975;28;20069;-59
2022/09/13 09:52:11;;;;;;;3.65;1.80;;;;;;;24.50;27.25;99296.47;5087928;28;20053;-59
2022/09/13 09:54:40;;;;;;;5.05;2.10;;;;;;;24.07;27.78;99287.31;5120990;27;20537;-58
2022/09/13 09:57:06;;;;;;;4.05;2.10;;;;;;;23.51;28.57;99282.13;5090013;28;20043;-57
2022/09/13 09:59:33;;;;;;;6.95;2.42;;;;;;;23.00;29.04;99285.13;5091309;28;20134;-59
2022/09/13 10:02:03;;;;;;;2.35;1.95;;;;;;;22.54;29.96;99277.84;5088179;28;20536;-61
2022/09/13 10:04:29;;;;;;;6.38;1.88;;;;;;;22.20;30.35;99281.81;5078557;28;20064;-54
2022/09/13 10:07:23;;;;;;;6.38;2.25;;;;;;;21.67;31.40;99267.97;5084255;28;20044;-56
2022/09/13 10:10:03;;;;;;;5.28;2.72;;;;;;;21.12;32.38;99260.28;5087016;28;20032;-63
2022/09/13 10:12:32;;;;;;;9.07;3.47;;;;;;;20.92;33.05;99273.47;5089718;28;20117;-63
2022/09/13 10:15:05;;;;;;;;;;;;;;;20.86;33.02;99281.91;5090250;28;20427;-59
2022/09/13 10:17:30;;;;;;;4.95;3.30;;;;;;;20.55;33.63;99259.84;5090076;28;20399;-59
2022/09/13 10:20:00;;;;;;;6.50;3.15;;;;;;;20.41;34.02;99282.06;5088945;28;20154;-60
2022/09/13 10:22:28;;;;;;;3.22;2.03;;;;;;;20.21;34.40;99285.44;5106156;28;20097;-59
2022/09/13 10:24:54;;;;;;;5.80;2.75;;;;;;;19.74;35.02;99279.50;5090536;28;20039;-61
2022/09/13 10:27:31;;;;;;;7.75;2.60;;;;;;;19.38;35.82;99267.34;5089001;28;20529;-61
2022/09/13 10:30:00;;;;;;;4.00;2.60;;;;;;;19.07;36.47;99251.38;5089391;28;20135;-59
2022/09/13 10:32:27;;;;;;;8.68;3.13;;;;;;;19.10;36.58;99277.50;5090079;28;20130;-62
2022/09/13 10:34:53;;;;;;;4.90;2.67;;;;;;;18.91;37.08;99262.22;5105791;28;20028;-64
2022/09/13 10:37:24;;;;;;;4.72;1.95;;;;;;;18.72;37.50;99264.56;5087640;28;20036;-62
2022/09/13 10:39:56;;;;;;;7.32;3.33;;;;;;;18.57;38.05;99258.66;5089982;28;20031;-62
2022/09/13 10:42:25;;;;;;;5.13;1.90;;;;;;;18.36;37.86;99262.81;5109653;27;20139;-62
2022/09/13 10:44:54;;;;;;;3.45;1.88;;;;;;;18.15;38.03;99255.53;5088253;28;20145;-64
2022/09/13 10:47:23;;;;;;;4.00;1.83;;;;;;;18.04;38.57;99263.34;5086298;28;20040;-63
2022/09/13 10:49:51;;;;;;;3.33;1.70;;;;;;;17.93;38.42;99262.44;5116774;27;20129;-60
2022/09/13 10:52:35;;;;;;;8.68;2.10;;;;;;;17.84;38.67;99257.81;5089223;28;20127;-63
2022/09/13 10:55:25;;;;;;;4.82;1.85;;;;;;;17.79;38.60;99256.34;5092006;28;20046;-65
2022/09/13 10:58:12;;;;;;;9.60;2.63;;;;;;;17.65;38.81;99245.13;5089000;28;20097;-62
2022/09/13 11:00:43;;;;;;;3.83;1.83;;;;;;;17.47;39.15;99228.84;5068581;28;20080;-60
2022/09/13 11:03:24;;;;;;;4.28;2.00;;;;;;;17.46;39.36;99239.44;5087427;28;20039;-62
2022/09/13 11:06:02;;;;;;;4.32;2.00;;;;;;;17.50;39.43;99257.50;5086356;28;20059;-60
2022/09/13 11:08:50;;;;;;;4.75;2.38;;;;;;;17.44;39.95;99249.22;5088317;28;20044;-61
2022/09/13 11:11:26;;;;;;;5.28;1.90;;;;;;;17.32;39.99;99251.72;5081317;28;20105;-58
2022/09/13 11:14:13;;;;;;;4.47;2.03;;;;;;;17.20;40.39;99249.97;5089879;28;20040;-60
2022/09/13 11:17:07;;;;;;;7.32;2.90;;;;;;;17.21;40.93;99249.03;5089656;28;20043;-55
2022/09/13 11:20:04;;;;;;;8.88;2.85;;;;;;;17.23;41.09;99246.28;5088223;28;20036;-57
2022/09/13 11:22:42;;;;;;;9.20;3.72;;;;;;;17.25;41.31;99237.34;5089422;28;20396;-53
2022/09/13 11:25:29;;;;;;;6.03;2.45;;;;;;;17.23;41.16;99239.22;5089496;28;20051;-57
2022/09/13 11:28:07;;;;;;;5.38;2.95;;;;;;;17.21;41.44;99242.94;5088381;28;20032;-52
2022/09/13 11:30:48;;;;;;;8.07;3.28;;;;;;;17.00;41.80;99205.00;5089523;28;20044;-53
2022/09/13 11:33:21;;;;;;;7.30;3.95;;;;;;;17.10;41.94;99230.53;5088221;28;20067;-57
2022/09/13 11:36:02;;;;;;;6.13;2.55;;;;;;;17.09;42.13;99226.22;5088758;28;20032;-57
2022/09/13 11:38:47;;;;;;;25.48;12.80;;;;;;;17.04;42.14;99219.59;5071053;28;20155;-54
2022/09/13 11:41:27;;;;;;;13.00;4.72;;;;;;;17.00;42.42;99215.50;5089376;28;20087;-54
2022/09/13 11:44:11;;;;;;;9.07;4.90;;;;;;;16.94;42.18;99217.59;5088746;28;20047;-58
2022/09/13 11:46:51;;;;;;;15.60;8.75;;;;;;;16.87;42.28;99223.34;5089230;28;20063;-56
2022/09/13 11:49:52;;;;;;;7.38;3.65;;;;;;;16.84;42.24;99220.94;5071143;28;20043;-54
2022/09/13 11:52:50;;;;;;;11.73;6.32;;;;;;;16.82;42.44;99225.44;5089478;28;20032;-55
2022/09/13 11:55:28;;;;;;;16.30;4.85;;;;;;;16.76;42.53;99215.34;5034175;28;20056;-56
2022/09/13 11:58:16;;;;;;;3.65;2.17;;;;;;;16.74;42.72;99212.00;5089136;28;20050;-54
2022/09/13 12:00:56;;;;;;;9.80;3.20;;;;;;;16.70;42.84;99206.09;5104925;28;20086;-55